Time;durP1;ratioP1;P1;durP2;ratioP2;P2;SDS_P1;SDS_P2;PMS_P1;PMS_P2;Temp;Humidity;BMP_temperature;BMP_pressure;BME280_temperature;BME280_humidity;BME280_pressure;Samples;Min_cycle;Max_cycle;Signal;HPM_P1;HPM_P2
2022/07/23 00:00:49;;;;;;;;;;;;;;;16.39;53.53;96239.31;6371152;27;20409;-65
2022/07/23 00:03:54;;;;;;;;;;;;;;;16.38;53.56;96237.63;6375690;27;19930;-65
2022/07/23 00:06:55;;;;;;;;;;;;;;;16.41;53.87;96242.63;6376254;27;20029;-65
2022/07/23 00:09:56;;;;;;;;;;;;;;;16.35;53.72;96240.56;6375566;27;19923;-66
2022/07/23 00:12:59;;;;;;;;;;;;;;;16.32;54.01;96248.84;6374779;27;19924;-65
2022/07/23 00:16:00;;;;;;;;;;;;;;;16.26;53.72;96238.81;6375880;27;20323;-65
2022/07/23 00:19:06;;;;;;;;;;;;;;;16.20;54.10;96242.09;6375861;27;20385;-65
2022/07/23 00:22:07;;;;;;;;;;;;;;;16.16;53.66;96239.72;6375803;27;20378;-65
2022/07/23 00:25:08;;;;;;;;;;;;;;;16.16;53.85;96247.69;6375534;27;19964;-65
2022/07/23 00:28:09;;;;;;;;;;;;;;;16.12;54.11;96248.97;6375177;27;19945;-65
2022/07/23 00:31:12;;;;;;;;;;;;;;;16.08;54.20;96252.09;6374860;27;19927;-65
2022/07/23 00:34:16;;;;;;;;;;;;;;;16.01;54.49;96248.34;6375644;27;19923;-65
2022/07/23 00:37:19;;;;;;;;;;;;;;;15.94;55.64;96250.75;6375432;27;19923;-65
2022/07/23 00:40:23;;;;;;;;;;;;;;;16.01;56.15;96251.00;6375270;27;19924;-65
2022/07/23 00:43:26;;;;;;;;;;;;;;;16.07;56.10;96245.91;6375020;27;19923;-65
2022/07/23 00:46:30;;;;;;;;;;;;;;;16.14;53.95;96244.34;6375260;27;19919;-65
2022/07/23 00:49:31;;;;;;;;;;;;;;;16.17;55.97;96252.00;6374614;27;19923;-65
2022/07/23 00:52:33;;;;;;;;;;;;;;;16.23;55.17;96250.56;6374252;27;19935;-65
2022/07/23 00:55:39;;;;;;;;;;;;;;;16.28;54.97;96253.63;6375078;27;19919;-65
2022/07/23 00:58:43;;;;;;;;;;;;;;;16.30;55.81;96250.81;6374693;27;20393;-66
2022/07/23 01:01:45;;;;;;;;;;;;;;;16.34;53.48;96252.19;6374081;27;19923;-65
2022/07/23 01:04:49;;;;;;;;;;;;;;;16.36;53.17;96259.03;6374732;27;19923;-65
2022/07/23 01:07:50;;;;;;;;;;;;;;;16.33;53.25;96250.50;6373845;27;19966;-65
2022/07/23 01:10:54;;;;;;;;;;;;;;;16.28;53.48;96258.09;6374829;27;20006;-64
2022/07/23 01:13:57;;;;;;;;;;;;;;;16.23;53.72;96265.69;6373579;27;19923;-64
2022/07/23 01:17:00;;;;;;;;;;;;;;;16.20;54.44;96269.47;6374566;27;19931;-65
2022/07/23 01:20:04;;;;;;;;;;;;;;;16.24;53.51;96257.53;6374298;27;19924;-64
2022/07/23 01:23:07;;;;;;;;;;;;;;;16.28;53.69;96264.25;6374312;27;19944;-64
2022/07/23 01:26:09;;;;;;;;;;;;;;;16.28;53.75;96263.41;6374011;27;19924;-65
2022/07/23 01:29:10;;;;;;;;;;;;;;;16.33;53.73;96261.97;6373063;27;19930;-65
2022/07/23 01:32:12;;;;;;;;;;;;;;;16.36;54.06;96260.81;6373966;27;19931;-65
2022/07/23 01:35:15;;;;;;;;;;;;;;;16.43;54.38;96261.91;6374027;27;19923;-64
2022/07/23 01:38:16;;;;;;;;;;;;;;;16.55;54.27;96260.69;6373913;27;20300;-65
2022/07/23 01:41:17;;;;;;;;;;;;;;;16.69;53.42;96267.28;6373000;27;19923;-65
2022/07/23 01:44:20;;;;;;;;;;;;;;;16.80;52.77;96274.22;6373453;27;20038;-65
2022/07/23 01:47:24;;;;;;;;;;;;;;;16.89;52.76;96268.00;6373771;27;19923;-64
2022/07/23 01:50:26;;;;;;;;;;;;;;;16.98;54.42;96272.38;6372889;27;19977;-64
2022/07/23 01:53:31;;;;;;;;;;;;;;;17.06;52.70;96269.78;6373521;27;19923;-65
2022/07/23 01:56:32;;;;;;;;;;;;;;;17.15;52.39;96277.81;6373034;27;19923;-65
2022/07/23 01:59:39;;;;;;;;;;;;;;;17.23;52.68;96280.53;6373303;27;19931;-65
2022/07/23 02:02:42;;;;;;;;;;;;;;;17.31;52.30;96277.13;6373414;27;20022;-66
2022/07/23 02:05:46;;;;;;;;;;;;;;;17.39;52.23;96278.00;6373252;27;19927;-65
2022/07/23 02:08:47;;;;;;;;;;;;;;;17.46;52.37;96275.53;6373170;27;20013;-65
2022/07/23 02:11:51;;;;;;;;;;;;;;;17.59;52.57;96288.44;6372970;27;19923;-66
2022/07/23 02:14:53;;;;;;;;;;;;;;;17.70;52.97;96288.16;6354810;27;20393;-64
2022/07/23 02:17:56;;;;;;;;;;;;;;;17.74;52.67;96284.19;6372978;27;20405;-65
2022/07/23 02:20:59;;;;;;;;;;;;;;;17.81;52.78;96289.75;6372786;27;19923;-65
2022/07/23 02:24:01;;;;;;;;;;;;;;;17.84;52.99;96284.94;6353630;27;19931;-65
2022/07/23 02:27:02;;;;;;;;;;;;;;;17.90;52.53;96284.31;6372934;27;19923;-64
2022/07/23 02:30:06;;;;;;;;;;;;;;;17.99;52.54;96287.00;6372799;27;19924;-65
2022/07/23 02:33:10;;;;;;;;;;;;;;;18.07;52.51;96300.34;6372674;27;19923;-65
2022/07/23 02:36:12;;;;;;;;;;;;;;;18.15;51.72;96292.41;6372380;27;19931;-64
2022/07/23 02:39:16;;;;;;;;;;;;;;;18.24;51.62;96296.75;6372252;27;19953;-64
2022/07/23 02:42:19;;;;;;;;;;;;;;;18.33;51.80;96301.09;6372373;27;19931;-65
2022/07/23 02:45:22;;;;;;;;;;;;;;;18.42;51.42;96298.47;6354050;27;19947;-65
2022/07/23 02:48:28;;;;;;;;;;;;;;;18.50;51.52;96295.84;6372385;27;19923;-65
2022/07/23 02:51:31;;;;;;;;;;;;;;;18.58;50.93;96301.19;6372150;27;19923;-65
2022/07/23 02:54:32;;;;;;;;;;;;;;;18.70;51.24;96297.19;6371155;27;19976;-66
2022/07/23 02:57:36;;;;;;;;;;;;;;;18.77;51.02;96300.09;6372142;27;19988;-66
2022/07/23 03:00:37;;;;;;;;;;;;;;;18.82;51.06;96298.59;6353293;27;19946;-66
2022/07/23 03:03:41;;;;;;;;;;;;;;;18.94;50.82;96304.44;6372053;27;20301;-66
2022/07/23 03:06:42;;;;;;;;;;;;;;;19.06;50.88;96299.63;6371814;27;19923;-65
2022/07/23 03:09:44;;;;;;;;;;;;;;;19.17;50.53;96301.94;6371529;27;19999;-65
2022/07/23 03:12:45;;;;;;;;;;;;;;;19.28;50.33;96298.94;6371125;27;19923;-65
2022/07/23 03:15:48;;;;;;;;;;;;;;;19.45;50.30;96302.44;6371659;27;20017;-65
2022/07/23 03:18:54;;;;;;;;;;;;;;;19.51;49.85;96296.41;6371722;27;20003;-65
2022/07/23 03:21:58;;;;;;;;;;;;;;;19.61;49.74;96295.38;6370325;27;19931;-65
2022/07/23 03:24:59;;;;;;;;;;;;;;;19.64;49.96;96301.22;6370610;27;19938;-65
2022/07/23 03:28:00;;;;;;;;;;;;;;;19.70;49.65;96300.59;6371063;27;20407;-65
2022/07/23 03:31:02;;;;;;;;;;;;;;;19.80;49.33;96299.56;6370253;27;19942;-65
2022/07/23 03:34:03;;;;;;;;;;;;;;;19.87;49.37;96297.84;6371061;27;19930;-66
2022/07/23 03:37:04;;;;;;;;;;;;;;;19.97;49.41;96295.84;6370631;27;19971;-66
2022/07/23 03:40:06;;;;;;;;;;;;;;;20.08;48.91;96298.13;6371221;28;19931;-64
2022/07/23 03:43:09;;;;;;;;;;;;;;;20.14;48.81;96302.78;6371159;28;19924;-65
2022/07/23 03:46:15;;;;;;;;;;;;;;;20.25;48.67;96298.91;6371424;28;19927;-65
2022/07/23 03:49:17;;;;;;;;;;;;;;;20.38;48.40;96306.34;6370992;28;19930;-64
2022/07/23 03:52:21;;;;;;;;;;;;;;;20.49;48.18;96303.28;6371231;28;20280;-66
2022/07/23 03:55:24;;;;;;;;;;;;;;;20.61;47.80;96298.41;6370266;28;19930;-66
2022/07/23 03:58:28;;;;;;;;;;;;;;;20.70;47.62;96293.84;6371123;28;20381;-65
2022/07/23 04:01:32;;;;;;;;;;;;;;;20.80;47.61;96291.75;6370693;28;19923;-65
2022/07/23 04:04:38;;;;;;;;;;;;;;;20.90;47.31;96297.72;6371087;28;19976;-65
2022/07/23 04:07:40;;;;;;;;;;;;;;;21.05;47.00;96293.25;6369907;28;20361;-66
2022/07/23 04:10:43;;;;;;;;;;;;;;;21.16;46.63;96299.19;6370733;28;20068;-65
2022/07/23 04:13:49;;;;;;;;;;;;;;;21.27;46.56;96293.44;6371125;28;19961;-65
2022/07/23 04:16:52;;;;;;;;;;;;;;;21.37;46.25;96299.38;6371153;28;19924;-66
2022/07/23 04:19:54;;;;;;;;;;;;;;;21.45;45.87;96299.31;6370092;28;19946;-65
2022/07/23 04:22:55;;;;;;;;;;;;;;;21.53;45.42;96298.41;6369906;28;19923;-66
2022/07/23 04:25:58;;;;;;;;;;;;;;;21.60;45.21;96295.81;6369904;28;20330;-66
2022/07/23 04:29:02;;;;;;;;;;;;;;;21.70;45.03;96288.38;6370554;28;19927;-65
2022/07/23 04:32:05;;;;;;;;;;;;;;;21.81;44.78;96295.94;6370531;28;19923;-66
2022/07/23 04:35:07;;;;;;;;;;;;;;;21.97;44.11;96295.78;6351422;28;20388;-66
2022/07/23 04:38:13;;;;;;;;;;;;;;;22.03;44.21;96290.69;6370838;28;20408;-65
2022/07/23 04:41:16;;;;;;;;;;;;;;;22.26;43.64;96296.81;6369704;28;20013;-65
2022/07/23 04:44:17;;;;;;;;;;;;;;;23.16;42.42;96298.25;6369801;28;19931;-65
2022/07/23 04:47:24;;;;;;;;;;;;;;;26.03;37.29;96302.91;6370289;27;19931;-63
2022/07/23 04:50:28;;;;;;;;;;;;;;;29.32;32.86;96303.34;6374659;27;20289;-65
2022/07/23 04:53:29;;;;;;;;;;;;;;;31.77;29.16;96311.31;6373933;27;19923;-65
2022/07/23 04:56:35;;;;;;;;;;;;;;;34.31;27.56;96310.94;6374900;27;19924;-65
2022/07/23 04:59:36;;;;;;;;;;;;;;;37.01;23.93;96312.31;6374708;27;19967;-65
2022/07/23 05:02:42;;;;;;;;;;;;;;;39.16;20.96;96318.63;6374628;27;19923;-65
2022/07/23 05:05:43;;;;;;;;;;;;;;;40.48;19.28;96322.34;6374499;27;20434;-65
2022/07/23 05:08:48;;;;;;;;;;;;;;;42.33;19.56;96319.94;6374759;27;20039;-65
2022/07/23 05:11:49;;;;;;;;;;;;;;;44.56;18.07;96318.88;6367602;27;19923;-65
2022/07/23 05:14:53;;;;;;;;;;;;;;;46.04;15.22;96317.13;6373928;27;20011;-65
2022/07/23 05:18:00;;;;;;;;;;;;;;;46.91;14.79;96322.53;6374359;27;19920;-65
2022/07/23 05:21:01;;;;;;;;;;;;;;;48.39;13.56;96320.16;6374052;27;19923;-65
2022/07/23 05:24:05;;;;;;;;;;;;;;;49.03;12.69;96314.59;6374319;27;19923;-65
2022/07/23 05:27:06;;;;;;;;;;;;;;;49.69;12.67;96321.28;6374108;27;20417;-66
2022/07/23 05:30:10;;;;;;;;;;;;;;;49.97;11.68;96309.91;6374279;27;19923;-65
2022/07/23 05:33:11;;;;;;;;;;;;;;;50.39;9.82;96309.09;6374146;27;20392;-65
2022/07/23 05:36:12;;;;;;;;;;;;;;;50.85;10.04;96307.13;6372846;27;19924;-65
2022/07/23 05:39:16;;;;;;;;;;;;;;;52.03;9.76;96311.59;6373682;27;20025;-66
2022/07/23 05:42:17;;;;;;;;;;;;;;;52.56;9.00;96316.19;6373208;27;19928;-66
2022/07/23 05:45:19;;;;;;;;;;;;;;;52.46;9.37;96312.09;6373178;27;19964;-66
2022/07/23 05:48:21;;;;;;;;;;;;;;;53.15;9.36;96314.28;6373917;27;19927;-65
2022/07/23 05:51:25;;;;;;;;;;;;;;;54.49;9.25;96313.66;6373626;27;19924;-65
2022/07/23 05:54:28;;;;;;;;;;;;;;;55.65;6.51;96312.38;6373477;27;20022;-64
2022/07/23 05:57:32;;;;;;;;;;;;;;;56.19;8.21;96318.59;6373580;27;19923;-65
2022/07/23 06:00:35;;;;;;;;;;;;;;;56.83;7.91;96309.69;6372127;27;20024;-64
2022/07/23 06:03:37;;;;;;;;;;;;;;;56.80;7.75;96312.53;6371934;27;20304;-64
2022/07/23 06:06:41;;;;;;;;;;;;;;;57.05;6.73;96309.47;6372116;27;19923;-65
2022/07/23 06:09:43;;;;;;;;;;;;;;;57.92;6.85;96315.84;6372283;27;20305;-65
2022/07/23 06:12:44;;;;;;;;;;;;;;;57.75;7.07;96315.63;6373028;27;19923;-65
2022/07/23 06:15:48;;;;;;;;;;;;;;;56.73;6.11;96302.09;6373254;27;19923;-65
2022/07/23 06:18:52;;;;;;;;;;;;;;;55.16;6.85;96292.34;6372612;27;19924;-65
2022/07/23 06:21:58;;;;;;;;;;;;;;;53.90;6.68;96297.00;6373291;27;19923;-65
2022/07/23 06:25:05;;;;;;;;;;;;;;;50.05;9.10;96278.88;6372711;27;19927;-65
2022/07/23 06:28:08;;;;;;;;;;;;;;;50.23;8.83;96276.44;6372462;27;19927;-65
2022/07/23 06:31:12;;;;;;;;;;;;;;;51.75;8.20;96278.41;6372853;27;19958;-65
2022/07/23 06:34:15;;;;;;;;;;;;;;;53.82;7.37;96292.53;6372518;27;19923;-65
2022/07/23 06:37:19;;;;;;;;;;;;;;;55.70;5.88;96286.56;6372572;27;19923;-64
2022/07/23 06:40:23;;;;;;;;;;;;;;;57.09;6.49;96291.28;6372312;27;19923;-65
2022/07/23 06:43:26;;;;;;;;;;;;;;;58.48;5.93;96302.13;6372445;27;20274;-65
2022/07/23 06:46:29;;;;;;;;;;;;;;;59.67;5.44;96298.00;6372562;27;19923;-65
2022/07/23 06:49:33;;;;;;;;;;;;;;;60.76;4.99;96300.84;6386194;27;19903;-64
2022/07/23 06:52:37;;;;;;;;;;;;;;;61.55;4.44;96302.38;6401470;27;19924;-65
2022/07/23 06:55:39;;;;;;;;;;;;;;;61.44;4.33;96301.88;6365435;27;19924;-65
2022/07/23 06:58:44;;;;;;;;;;;;;;;62.06;4.34;96301.72;6385449;27;19967;-65
2022/07/23 07:02:15;;;;;;;;;;;;;;;62.67;4.65;96305.53;6351632;27;19928;-64
2022/07/23 07:09:35;;;;;;;;;;;;;;;62.12;3.94;96289.31;6838743;22;19913;-65
2022/07/23 07:12:42;;;;;;;;;;;;;;;60.95;4.11;96270.69;6300600;28;20430;-65
2022/07/23 07:15:47;;;;;;;;;;;;;;;58.90;4.73;96262.97;6283705;28;20383;-66
2022/07/23 07:18:50;;;;;;;;;;;;;;;54.09;6.22;96235.97;6270608;28;19924;-65
2022/07/23 07:21:53;;;;;;;;;;;;;;;48.70;8.97;96209.69;6270671;28;19924;-66
2022/07/23 07:24:55;;;;;;;;;;;;;;;46.72;9.61;96208.16;6270674;28;19924;-65
2022/07/23 07:27:57;;;;;;;;;;;;;;;44.45;10.92;96208.59;6252921;28;19995;-65
2022/07/23 07:30:59;;;;;;;;;;;;;;;41.10;12.73;96193.06;6269750;28;19924;-65
2022/07/23 07:34:01;;;;;;;;;;;;;;;42.57;12.07;96195.06;6269943;28;19925;-66
2022/07/23 07:37:06;;;;;;;;;;;;;;;46.20;9.87;96215.16;6270088;28;19925;-64
2022/07/23 07:40:08;;;;;;;;;;;;;;;50.31;7.84;96225.03;6269867;28;19931;-65
2022/07/23 07:43:14;;;;;;;;;;;;;;;53.77;6.24;96243.09;6270229;28;19932;-64
2022/07/23 07:46:18;;;;;;;;;;;;;;;55.89;5.73;96249.38;6270505;28;20070;-65
2022/07/23 07:49:22;;;;;;;;;;;;;;;57.17;5.15;96258.09;6270160;28;19924;-65
2022/07/23 07:52:25;;;;;;;;;;;;;;;57.82;5.16;96254.53;6269646;28;20010;-66
2022/07/23 07:55:37;;;;;;;;;;;;;;;57.60;4.90;96245.50;6270515;28;19924;-65
2022/07/23 07:58:40;;;;;;;;;;;;;;;58.39;5.18;96248.03;6270073;28;20286;-66
2022/07/23 08:01:42;;;;;;;;;;;;;;;59.46;4.51;96246.13;6269885;28;19929;-65
2022/07/23 08:04:45;;;;;;;;;;;;;;;60.18;4.54;96251.06;6270641;28;19932;-65
2022/07/23 08:07:49;;;;;;;;;;;;;;;59.37;4.26;96251.56;6270434;28;19920;-64
2022/07/23 08:10:52;;;;;;;;;;;;;;;58.88;4.08;96239.91;6270279;28;19944;-65
2022/07/23 08:13:56;;;;;;;;;;;;;;;58.62;4.84;96236.69;6270408;28;20286;-65
2022/07/23 08:17:00;;;;;;;;;;;;;;;58.74;4.28;96240.16;6270020;28;19925;-65
2022/07/23 08:20:05;;;;;;;;;;;;;;;58.70;3.69;96239.44;6270176;28;19932;-65
2022/07/23 08:23:09;;;;;;;;;;;;;;;58.40;4.54;96236.25;6271921;28;19925;-65
2022/07/23 08:26:12;;;;;;;;;;;;;;;57.91;4.73;96223.66;6275184;28;20740;-63
2022/07/23 08:29:15;;;;;;;;;;;;;;;58.15;4.30;96228.13;6274737;28;20382;-65
2022/07/23 08:32:19;;;;;;;;;;;;;;;58.64;4.40;96228.56;6274788;28;19924;-65
2022/07/23 08:35:24;;;;;;;;;;;;;;;59.19;3.65;96236.91;6274798;28;19921;-64
2022/07/23 08:38:28;;;;;;;;;;;;;;;58.70;3.95;96234.56;6274658;28;19925;-64
2022/07/23 08:41:31;;;;;;;;;;;;;;;58.37;3.76;96230.66;6274189;28;20310;-64
2022/07/23 08:44:35;;;;;;;;;;;;;;;59.05;4.12;96224.63;6274544;28;20390;-64
2022/07/23 08:47:39;;;;;;;;;;;;;;;59.27;4.04;96230.69;6274449;28;19921;-65
2022/07/23 08:50:44;;;;;;;;;;;;;;;58.56;4.15;96226.31;6274058;28;19931;-65
2022/07/23 08:53:47;;;;;;;;;;;;;;;57.87;3.89;96225.72;6274205;28;19921;-65
2022/07/23 08:56:49;;;;;;;;;;;;;;;57.75;4.13;96230.69;6274156;28;19925;-65
2022/07/23 08:59:53;;;;;;;;;;;;;;;57.97;3.21;96219.09;6274116;28;19924;-65
2022/07/23 09:02:56;;;;;;;;;;;;;;;57.56;4.22;96220.06;6273738;28;19979;-65
2022/07/23 09:06:01;;;;;;;;;;;;;;;57.21;4.21;96207.94;6256353;28;20307;-65
2022/07/23 09:09:16;;;;;;;;;;;;;;;57.60;3.67;96208.72;6274072;28;20386;-64
2022/07/23 09:12:19;;;;;;;;;;;;;;;57.49;3.90;96206.00;6273882;28;20302;-65
2022/07/23 09:15:23;;;;;;;;;;;;;;;56.84;4.38;96203.06;6273674;28;20398;-65
2022/07/23 09:18:38;;;;;;;;;;;;;;;56.52;4.07;96200.56;6273825;28;19924;-64
2022/07/23 09:21:42;;;;;;;;;;;;;;;55.97;4.30;96194.53;6273614;28;20379;-65
2022/07/23 09:25:03;;;;;;;;;;;;;;;55.99;4.29;96179.97;6272287;28;20027;-65
2022/07/23 09:28:07;;;;;;;;;;;;;;;56.48;4.47;96190.09;6273369;28;19925;-64
2022/07/23 09:31:11;;;;;;;;;;;;;;;56.58;4.07;96187.59;6273214;28;19924;-65
2022/07/23 09:34:14;;;;;;;;;;;;;;;55.57;4.44;96185.41;6272400;28;19924;-65
2022/07/23 09:37:19;;;;;;;;;;;;;;;55.30;4.46;96181.56;6273321;28;19925;-66
2022/07/23 09:40:23;;;;;;;;;;;;;;;55.32;4.67;96182.75;6273181;28;19924;-65
2022/07/23 09:43:30;;;;;;;;;;;;;;;54.68;4.70;96189.34;6273145;28;19925;-65
2022/07/23 09:46:33;;;;;;;;;;;;;;;54.11;5.26;96172.44;6273062;28;19925;-65
2022/07/23 09:49:36;;;;;;;;;;;;;;;53.70;5.32;96175.56;6272770;28;19924;-65
2022/07/23 09:52:44;;;;;;;;;;;;;;;54.15;4.81;96176.03;6272546;28;19925;-65
2022/07/23 09:55:48;;;;;;;;;;;;;;;54.68;5.17;96169.63;6272554;28;19925;-66
2022/07/23 09:59:02;;;;;;;;;;;;;;;54.14;5.17;96168.81;6272677;28;19920;-65
2022/07/23 10:02:06;;;;;;;;;;;;;;;53.80;5.38;96174.78;6272379;28;20299;-64
2022/07/23 10:05:10;;;;;;;;;;;;;;;53.46;5.51;96160.22;6272572;28;19921;-64
2022/07/23 10:08:17;;;;;;;;;;;;;;;53.49;4.96;96156.59;6272539;28;19925;-65
2022/07/23 10:11:20;;;;;;;;;;;;;;;52.19;5.40;96142.97;6272108;28;19925;-65
2022/07/23 10:14:25;;;;;;;;;;;;;;;51.01;6.03;96138.88;6272112;28;19924;-64
2022/07/23 10:17:29;;;;;;;;;;;;;;;50.76;6.15;96139.34;6272263;28;20303;-65
2022/07/23 10:20:32;;;;;;;;;;;;;;;50.10;6.54;96137.88;6272251;28;20378;-64
2022/07/23 10:23:55;;;;;;;;;;;;;;;50.05;6.64;96127.00;6272241;28;19925;-65
2022/07/23 10:27:04;;;;;;;;;;;;;;;50.20;6.43;96131.66;6255378;28;19925;-65
2022/07/23 10:30:11;;;;;;;;;;;;;;;50.30;6.39;96139.44;6272036;28;19931;-64
2022/07/23 10:33:32;;;;;;;;;;;;;;;49.88;6.61;96129.13;6271707;28;19924;-65
2022/07/23 10:36:37;;;;;;;;;;;;;;;49.07;6.94;96122.75;6271798;28;20386;-65
2022/07/23 10:39:41;;;;;;;;;;;;;;;49.28;7.00;96119.59;6272192;28;19929;-65
2022/07/23 10:42:46;;;;;;;;;;;;;;;49.04;7.34;96123.50;6253574;28;19925;-65
2022/07/23 10:45:50;;;;;;;;;;;;;;;48.49;7.43;96129.81;6271597;28;19924;-65
2022/07/23 10:49:11;;;;;;;;;;;;;;;48.40;7.23;96123.63;6271453;28;19924;-65
2022/07/23 10:52:14;;;;;;;;;;;;;;;47.88;7.67;96124.75;6253989;28;19952;-65
2022/07/23 10:55:17;;;;;;;;;;;;;;;47.67;7.94;96130.53;6271420;28;19924;-66
2022/07/23 10:58:24;;;;;;;;;;;;;;;47.74;7.77;96124.38;6253097;28;19925;-66
2022/07/23 11:01:31;;;;;;;;;;;;;;;47.87;8.03;96123.13;6253280;28;19924;-65
2022/07/23 11:04:51;;;;;;;;;;;;;;;47.92;7.61;96131.22;6271213;28;19925;-66
2022/07/23 11:08:07;;;;;;;;;;;;;;;47.72;7.94;96118.34;6271147;28;20382;-66
2022/07/23 11:11:11;;;;;;;;;;;;;;;47.55;8.29;96120.28;6270947;28;19924;-66
2022/07/23 11:14:14;;;;;;;;;;;;;;;46.60;8.93;96114.34;6270912;28;19924;-65
2022/07/23 11:17:20;;;;;;;;;;;;;;;46.34;8.80;96107.19;6270606;28;20151;-66
2022/07/23 11:20:23;;;;;;;;;;;;;;;45.85;9.23;96103.56;6270916;28;19925;-65
2022/07/23 11:23:46;;;;;;;;;;;;;;;45.62;9.21;96100.41;6270638;28;20409;-66
2022/07/23 11:26:54;;;;;;;;;;;;;;;45.24;9.42;96096.72;6270694;28;19924;-65
2022/07/23 11:30:02;;;;;;;;;;;;;;;44.89;9.69;96096.19;6269530;28;20017;-65
2022/07/23 11:33:09;;;;;;;;;;;;;;;44.53;9.71;96094.84;6253270;28;19931;-65
2022/07/23 11:36:11;;;;;;;;;;;;;;;43.57;10.25;96108.34;6270627;28;19925;-65
2022/07/23 11:39:15;;;;;;;;;;;;;;;42.93;10.85;96105.47;6270650;28;19937;-66
2022/07/23 11:42:19;;;;;;;;;;;;;;;42.65;10.75;96105.75;6270264;28;20310;-65
2022/07/23 11:45:25;;;;;;;;;;;;;;;41.41;12.08;96101.22;6270476;28;20295;-65
2022/07/23 11:48:29;;;;;;;;;;;;;;;40.75;12.21;96095.41;6252871;28;19925;-65
2022/07/23 11:51:33;;;;;;;;;;;;;;;40.88;12.18;96094.53;6270372;28;20315;-64
2022/07/23 11:54:48;;;;;;;;;;;;;;;40.75;12.20;96096.22;6270732;28;20382;-65
2022/07/23 11:57:53;;;;;;;;;;;;;;;39.84;12.92;96088.78;6272459;28;19928;-65
2022/07/23 12:00:55;;;;;;;;;;;;;;;39.34;13.00;96093.28;6275652;28;20402;-65
2022/07/23 12:03:58;;;;;;;;;;;;;;;39.37;12.96;96093.50;6275446;28;19925;-65
2022/07/23 12:07:02;;;;;;;;;;;;;;;39.39;12.66;96082.19;6275313;28;20287;-66
2022/07/23 12:10:06;;;;;;;;;;;;;;;39.23;12.75;96079.66;6275128;28;19924;-66
2022/07/23 12:13:10;;;;;;;;;;;;;;;39.24;13.13;96089.56;6275079;28;19925;-65
2022/07/23 12:16:13;;;;;;;;;;;;;;;39.14;13.32;96092.50;6275231;28;19924;-65
2022/07/23 12:19:17;;;;;;;;;;;;;;;38.85;13.60;96088.00;6275003;28;19924;-66
2022/07/23 12:22:22;;;;;;;;;;;;;;;38.69;13.89;96081.09;6256892;28;19924;-66
2022/07/23 12:25:35;;;;;;;;;;;;;;;38.66;14.16;96092.69;6274802;28;19925;-65
2022/07/23 12:28:39;;;;;;;;;;;;;;;38.19;14.09;96088.97;6274569;28;19979;-65
2022/07/23 12:31:42;;;;;;;;;;;;;;;37.86;14.58;96083.28;6274497;28;19929;-66
2022/07/23 12:34:46;;;;;;;;;;;;;;;37.68;14.90;96078.53;6274700;28;19924;-65
2022/07/23 12:37:55;;;;;;;;;;;;;;;37.58;14.64;96073.19;6274728;28;19924;-66
2022/07/23 12:40:59;;;;;;;;;;;;;;;37.59;14.92;96081.13;6274785;28;20009;-66
2022/07/23 12:44:14;;;;;;;;;;;;;;;37.41;15.32;96085.41;6274338;28;19928;-65
2022/07/23 12:47:16;;;;;;;;;;;;;;;36.85;14.95;96080.41;6273166;28;20334;-64
2022/07/23 12:50:38;;;;;;;;;;;;;;;36.34;15.60;96072.50;6274060;28;19925;-65
2022/07/23 12:53:43;;;;;;;;;;;;;;;35.94;15.74;96075.16;6273860;28;19925;-66
2022/07/23 12:56:46;;;;;;;;;;;;;;;35.56;15.75;96071.22;6274467;28;19925;-64
2022/07/23 12:59:49;;;;;;;;;;;;;;;35.35;16.19;96066.84;6274061;28;19925;-65
2022/07/23 13:02:53;;;;;;;;;;;;;;;35.03;16.50;96066.03;6273922;28;19933;-65
2022/07/23 13:05:57;;;;;;;;;;;;;;;34.78;16.65;96074.25;6273885;28;19925;-65
2022/07/23 13:09:02;;;;;;;;;;;;;;;34.60;17.42;96072.88;6272103;28;19925;-66
2022/07/23 13:12:05;;;;;;;;;;;;;;;34.34;16.99;96072.81;6273603;28;19931;-66
2022/07/23 13:15:08;;;;;;;;;;;;;;;34.06;17.52;96073.28;6273964;28;19924;-66
2022/07/23 13:18:16;;;;;;;;;;;;;;;33.81;18.07;96077.53;6273497;28;19971;-65
2022/07/23 13:21:20;;;;;;;;;;;;;;;33.45;18.40;96079.22;6273591;28;19979;-65
2022/07/23 13:24:23;;;;;;;;;;;;;;;33.09;19.06;96074.38;6273587;28;19925;-66
2022/07/23 13:27:27;;;;;;;;;;;;;;;32.77;18.89;96070.81;6272383;28;19932;-66
2022/07/23 13:30:29;;;;;;;;;;;;;;;32.81;19.08;96074.66;6273536;28;19925;-65
2022/07/23 13:33:34;;;;;;;;;;;;;;;32.45;18.66;96071.59;6273357;28;19932;-66
2022/07/23 13:36:37;;;;;;;;;;;;;;;32.30;18.75;96069.56;6273130;28;20384;-65
2022/07/23 13:39:42;;;;;;;;;;;;;;;32.09;18.76;96073.94;6272386;28;19947;-66
2022/07/23 13:42:45;;;;;;;;;;;;;;;31.93;19.29;96069.41;6273118;28;19928;-65
2022/07/23 13:45:50;;;;;;;;;;;;;;;31.71;18.95;96072.13;6273516;28;19925;-66
2022/07/23 13:48:53;;;;;;;;;;;;;;;31.61;19.25;96064.66;6272976;28;19924;-66
2022/07/23 13:51:59;;;;;;;;;;;;;;;31.44;19.47;96072.03;6272901;28;19955;-65
2022/07/23 13:55:03;;;;;;;;;;;;;;;31.40;19.50;96065.47;6272778;28;19928;-65
2022/07/23 13:58:07;;;;;;;;;;;;;;;31.31;19.49;96071.31;6272777;28;19935;-65
2022/07/23 14:01:11;;;;;;;;;;;;;;;31.27;19.86;96072.84;6272452;28;19924;-65
2022/07/23 14:04:16;;;;;;;;;;;;;;;31.20;19.69;96068.69;6272588;28;20409;-64
2022/07/23 14:07:19;;;;;;;;;;;;;;;31.17;19.71;96071.88;6272370;28;20027;-66
2022/07/23 14:10:23;;;;;;;;;;;;;;;31.02;19.92;96064.34;6272205;28;19936;-65
2022/07/23 14:13:27;;;;;;;;;;;;;;;30.98;20.35;96066.72;6272387;28;19928;-65
2022/07/23 14:16:30;;;;;;;;;;;;;;;31.02;20.46;96069.75;6272253;28;19921;-66
2022/07/23 14:19:34;;;;;;;;;;;;;;;30.74;20.43;96068.75;6271986;28;19924;-65
2022/07/23 14:22:36;;;;;;;;;;;;;;;30.66;20.35;96069.19;6271550;28;19924;-65
2022/07/23 14:25:39;;;;;;;;;;;;;;;30.67;20.70;96076.25;6272097;28;19925;-65
2022/07/23 14:28:43;;;;;;;;;;;;;;;30.66;20.75;96066.47;6254197;28;19925;-66
2022/07/23 14:31:48;;;;;;;;;;;;;;;30.66;20.65;96069.19;6271633;28;19925;-65
2022/07/23 14:34:52;;;;;;;;;;;;;;;30.65;20.69;96070.22;6271812;28;19925;-66
2022/07/23 14:37:54;;;;;;;;;;;;;;;30.54;20.59;96068.41;6271959;28;19925;-66
2022/07/23 14:40:58;;;;;;;;;;;;;;;30.43;20.64;96064.69;6270851;28;19925;-65
2022/07/23 14:44:02;;;;;;;;;;;;;;;30.48;20.84;96058.53;6271662;28;20432;-66
2022/07/23 14:47:06;;;;;;;;;;;;;;;30.11;20.94;96064.38;6271564;28;19924;-65
2022/07/23 14:50:10;;;;;;;;;;;;;;;29.87;21.16;96059.03;6271535;28;20239;-65
2022/07/23 14:53:13;;;;;;;;;;;;;;;29.70;21.43;96063.59;6271225;28;20760;-65
2022/07/23 14:56:17;;;;;;;;;;;;;;;29.57;21.57;96063.81;6271064;28;20410;-65
2022/07/23 14:59:19;;;;;;;;;;;;;;;29.42;21.61;96067.84;6253428;28;19983;-66
2022/07/23 15:02:23;;;;;;;;;;;;;;;29.33;21.78;96063.84;6271037;28;19925;-65
2022/07/23 15:05:25;;;;;;;;;;;;;;;29.18;21.86;96072.44;6271090;28;20398;-65
2022/07/23 15:08:28;;;;;;;;;;;;;;;29.04;22.04;96066.44;6271020;28;19924;-66
2022/07/23 15:11:33;;;;;;;;;;;;;;;28.91;22.16;96066.66;6270701;28;20318;-66
2022/07/23 15:14:37;;;;;;;;;;;;;;;28.77;22.29;96065.25;6270774;28;19925;-66
2022/07/23 15:17:41;;;;;;;;;;;;;;;28.73;22.56;96069.47;6271078;28;19924;-65
2022/07/23 15:20:45;;;;;;;;;;;;;;;28.77;22.60;96070.66;6270943;28;19925;-66
2022/07/23 15:23:49;;;;;;;;;;;;;;;28.74;22.66;96071.94;6270878;28;19931;-66
2022/07/23 15:26:52;;;;;;;;;;;;;;;28.61;22.94;96083.81;6270710;28;20283;-66
2022/07/23 15:29:56;;;;;;;;;;;;;;;28.32;23.12;96071.13;6270547;28;20385;-66
2022/07/23 15:32:59;;;;;;;;;;;;;;;28.07;23.28;96063.97;6268832;28;20015;-65
2022/07/23 15:36:02;;;;;;;;;;;;;;;27.82;23.73;96068.69;6270772;28;19925;-65
2022/07/23 15:39:06;;;;;;;;;;;;;;;27.60;23.92;96071.84;6270458;28;19928;-66
2022/07/23 15:42:09;;;;;;;;;;;;;;;27.40;24.45;96071.22;6270382;28;19924;-66
2022/07/23 15:45:12;;;;;;;;;;;;;;;27.18;24.74;96079.78;6270663;28;19929;-66
2022/07/23 15:48:16;;;;;;;;;;;;;;;27.00;25.22;96071.63;6270390;28;19925;-66
2022/07/23 15:51:20;;;;;;;;;;;;;;;26.80;25.23;96075.31;6270486;28;19924;-65
2022/07/23 15:54:23;;;;;;;;;;;;;;;26.64;25.18;96084.00;6270716;28;19924;-66
2022/07/23 15:57:26;;;;;;;;;;;;;;;26.47;25.90;96082.81;6270479;28;20322;-66
2022/07/23 16:00:30;;;;;;;;;;;;;;;26.32;26.59;96097.44;6269998;28;19925;-66
2022/07/23 16:03:34;;;;;;;;;;;;;;;26.14;26.48;96095.47;6252775;28;19968;-65
2022/07/23 16:06:40;;;;;;;;;;;;;;;26.01;27.39;96100.94;6270205;28;19924;-66